Pearl Of Scandinavia — OWFU2 — position and weather

sailwx.info

Track history (hours):
 
Tides and Currents Weather Stations Pressure Air Temp Water Temp Dewpoint Dewpoint Depression Visibility Wind Speed Wind Dir Waves Ship Positions

Pearl Of Scandinavia

Last reported at 2018-May-24 13:29 UTC. Time now 2018-May-24 13:57 UTC.
Position N 55°42' E 012°36'.

Length 176.4 m; beam 34 m; draft 6.215 m.

Type: Ship. MMSI: 219945000.

Date/timePositionNaut miles runAvg speedWind from/ knotsBaromVisibWave heightAir tempDewpointWater temp
2018-May-24 13:29N 55°42' E 012°36'0 0.0
2018-May-24 08:59N 55°42' E 012°36'0 0.0
2018-May-24 08:26N 55°42' E 012°36'0 0.0
2018-May-24 07:59N 55°42' E 012°36'0 0.7
2018-May-24 07:30N 55°42' E 012°36'611.1
2018-May-24 07:00N 55°47' E 012°42'714.1
2018-May-24 06:30N 55°54' E 012°39'714.4
2018-May-24 06:00N 56°01' E 012°40'714.3
2018-May-24 05:31N 56°07' E 012°32'815.3
2018-May-24 05:00N 56°14' E 012°26'815.9
2018-May-24 04:30N 56°21' E 012°22'816.3
2018-May-24 04:00N 56°29' E 012°19'815.7
2018-May-24 03:30N 56°37' E 012°15'4315.9
2018-May-24 00:48N 57°18' E 011°49'517.0
2018-May-24 00:30N 57°21' E 011°43'817.1
2018-May-24 00:00N 57°28' E 011°34'917.2
2018-May-23 23:31N 57°36' E 011°26'917.1
2018-May-23 23:00N 57°43' E 011°19'816.6
2018-May-23 22:31N 57°51' E 011°15'816.6
2018-May-23 22:01N 57°59' E 011°11'816.5
2018-May-23 21:30N 58°07' E 011°06'816.3
2018-May-23 21:00N 58°15' E 011°00'816.1
2018-May-23 20:30N 58°23' E 010°56'816.0
2018-May-23 20:00N 58°30' E 010°52'816.2
2018-May-23 19:30N 58°38' E 010°49'815.7
2018-May-23 19:00N 58°46' E 010°46'816.4
2018-May-23 18:30N 58°54' E 010°43'816.9
2018-May-23 18:00N 59°02' E 010°41'816.7
2018-May-23 17:30N 59°11' E 010°38'917.1
2018-May-23 17:01N 59°19' E 010°35'816.7
2018-May-23 16:30N 59°27' E 010°33'815.5
2018-May-23 16:00N 59°35' E 010°38'713.0
2018-May-23 15:30N 59°41' E 010°36'815.6
2018-May-23 15:00N 59°49' E 010°34'714.3
2018-May-23 14:30N 59°54' E 010°44'0 0.7
2018-May-23 14:00N 59°54' E 010°45'0 0.0
2018-May-23 13:30N 59°54' E 010°45'0 0.0
2018-May-23 13:00N 59°54' E 010°45'0 0.0
2018-May-23 12:30N 59°54' E 010°45'0 0.0
2018-May-23 12:00N 59°54' E 010°45'0 0.0
2018-May-23 11:30N 59°54' E 010°45'0 0.0
2018-May-23 11:00N 59°54' E 010°45'0 0.0
2018-May-23 10:30N 59°54' E 010°45'0 0.0
2018-May-23 10:00N 59°54' E 010°45'0 0.0
2018-May-23 09:30N 59°54' E 010°45'0 0.0
2018-May-23 09:00N 59°54' E 010°45'0 0.0
2018-May-23 08:30N 59°54' E 010°45'0 0.0
2018-May-23 08:00N 59°54' E 010°45'1 1.1
2018-May-23 07:30N 59°54' E 010°44'714.1
2018-May-23 07:00N 59°49' E 010°35'714.6
2018-May-23 06:30N 59°41' E 010°36'713.9
2018-May-23 06:01N 59°35' E 010°38'815.0
2018-May-23 05:31N 59°27' E 010°34'815.4
2018-May-23 05:01N 59°20' E 010°36'815.4
2018-May-23 04:31N 59°12' E 010°39'815.7
2018-May-23 04:00N 59°04' E 010°41'815.4
2018-May-23 03:30N 58°57' E 010°43'714.0
2018-May-23 03:01N 58°50' E 010°46'714.4
2018-May-23 02:31N 58°43' E 010°48'816.0
2018-May-23 02:01N 58°35' E 010°51'816.0
2018-May-23 01:30N 58°27' E 010°56'816.5
2018-May-23 01:01N 58°19' E 010°60'816.8
2018-May-23 00:31N 58°11' E 011°05'816.5
2018-May-23 00:01N 58°03' E 011°09'816.6
2018-May-22 23:30N 57°55' E 011°14'816.5
2018-May-22 23:00N 57°48' E 011°20'816.4
2018-May-22 22:30N 57°40' E 011°26'816.3
2018-May-22 22:00N 57°33' E 011°31'816.2
2018-May-22 21:30N 57°25' E 011°38'816.5
2018-May-22 21:00N 57°19' E 011°47'916.7
2018-May-22 20:28N 57°11' E 011°55'6716.3
2018-May-22 16:20N 56°07' E 012°34'617.4
2018-May-22 16:01N 56°02' E 012°40'816.8
2018-May-22 15:31N 55°54' E 012°44'816.2
2018-May-22 15:01N 55°46' E 012°42'510.9
2018-May-22 14:31N 55°42' E 012°36'0 0.0
2018-May-22 14:00N 55°42' E 012°36'0 0.0
2018-May-22 13:30N 55°42' E 012°36'0 0.0
2018-May-22 13:00N 55°42' E 012°36'0 0.0
2018-May-22 12:30N 55°42' E 012°36'0 0.0
2018-May-22 12:00N 55°42' E 012°36'0 0.0
2018-May-22 11:30N 55°42' E 012°36'0 0.0
2018-May-22 10:54N 55°42' E 012°36'0 0.0
2018-May-22 10:30N 55°42' E 012°36'0 0.0
2018-May-22 09:57N 55°42' E 012°36'0 0.0
2018-May-22 09:30N 55°42' E 012°36'0 0.0
2018-May-22 09:00N 55°42' E 012°36'0 0.0
2018-May-22 08:30N 55°42' E 012°36'0 0.0
2018-May-22 08:00N 55°42' E 012°36'0 0.7
2018-May-22 07:30N 55°42' E 012°36'510.3
2018-May-22 07:00N 55°47' E 012°41'714.3
2018-May-22 06:30N 55°54' E 012°40'815.3
2018-May-22 06:00N 56°01' E 012°40'714.1
2018-May-22 05:30N 56°07' E 012°32'714.7
2018-May-22 05:00N 56°13' E 012°26'6115.7
2018-May-22 01:07N 57°12' E 011°53'216.4
2018-May-22 00:59N 57°14' E 011°52'816.1
2018-May-22 00:30N 57°20' E 011°43'816.0
2018-May-22 00:00N 57°26' E 011°34'816.4
2018-May-21 23:31N 57°33' E 011°25'917.0
2018-May-21 23:00N 57°40' E 011°15'917.1
2018-May-21 22:31N 57°47' E 011°07'816.6
2018-May-21 22:00N 57°55' E 011°02'816.1
2018-May-21 21:31N 58°02' E 010°56'816.4
2018-May-21 21:01N 58°10' E 010°51'816.6
2018-May-21 20:31N 58°18' E 010°45'917.1
2018-May-21 20:01N 58°26' E 010°41'917.2
2018-May-21 19:31N 58°34' E 010°39'817.0
2018-May-21 19:01N 58°43' E 010°37'917.1
2018-May-21 18:31N 58°51' E 010°38'917.3
2018-May-21 18:01N 59°00' E 010°39'917.0
2018-May-21 17:31N 59°09' E 010°38'816.8
2018-May-21 17:01N 59°17' E 010°36'816.7
2018-May-21 16:31N 59°25' E 010°33'816.8
2018-May-21 16:01N 59°33' E 010°37'713.5
2018-May-21 15:31N 59°40' E 010°37'714.8
2018-May-21 15:00N 59°47' E 010°34'815.2
2018-May-21 14:30N 59°54' E 010°42'2 3.0
2018-May-21 13:59N 59°54' E 010°45'0 0.0
2018-May-21 13:29N 59°54' E 010°45'0 0.0
2018-May-21 12:59N 59°54' E 010°45'0 0.0
2018-May-21 12:29N 59°54' E 010°45'0 0.0
2018-May-21 11:59N 59°54' E 010°45'0 0.0
2018-May-21 11:29N 59°54' E 010°45'0 0.0
2018-May-21 10:59N 59°54' E 010°45'0 0.0
2018-May-21 10:29N 59°54' E 010°45'0 0.0
2018-May-21 09:59N 59°54' E 010°45'0 0.0
2018-May-21 09:29N 59°54' E 010°45'0 0.0
2018-May-21 08:59N 59°54' E 010°45'0 0.0
2018-May-21 08:29N 59°54' E 010°45'0 0.0
2018-May-21 07:59N 59°54' E 010°45'0 0.7
2018-May-21 07:30N 59°54' E 010°44'714.0
2018-May-21 07:00N 59°49' E 010°35'815.0
2018-May-21 06:30N 59°41' E 010°36'713.9
2018-May-21 06:00N 59°34' E 010°38'714.1
2018-May-21 05:30N 59°28' E 010°34'815.3
2018-May-21 05:00N 59°20' E 010°36'815.7
2018-May-21 04:30N 59°12' E 010°38'815.9
2018-May-21 04:00N 59°04' E 010°41'815.7
2018-May-21 03:30N 58°57' E 010°44'815.5
2018-May-21 03:00N 58°49' E 010°46'815.6
2018-May-21 02:30N 58°41' E 010°48'815.6
2018-May-21 02:00N 58°34' E 010°51'815.9
2018-May-21 01:30N 58°26' E 010°56'816.5
2018-May-21 01:00N 58°18' E 011°01'816.4
2018-May-21 00:30N 58°10' E 011°06'816.7
2018-May-21 00:00N 58°03' E 011°11'816.2
2018-May-20 23:30N 57°55' E 011°16'816.0
2018-May-20 23:00N 57°47' E 011°21'816.0
2018-May-20 22:30N 57°40' E 011°26'816.2
2018-May-20 22:00N 57°32' E 011°32'815.8
2018-May-20 21:30N 57°25' E 011°38'816.3
2018-May-20 21:00N 57°18' E 011°47'816.3
2018-May-20 20:30N 57°11' E 011°54'816.3
2018-May-20 20:00N 57°04' E 012°00'816.4
2018-May-20 19:30N 56°56' E 012°05'916.1
2018-May-20 18:58N 56°48' E 012°11'716.0
2018-May-20 18:30N 56°41' E 012°15'815.9
2018-May-20 18:00N 56°33' E 012°18'816.5
2018-May-20 17:30N 56°25' E 012°22'816.6
2018-May-20 17:00N 56°18' E 012°26'1316.4
2018-May-20 16:14N 56°06' E 012°35'416.9
2018-May-20 16:00N 56°03' E 012°39'816.6
2018-May-20 15:30N 55°55' E 012°44'816.1
2018-May-20 15:00N 55°47' E 012°42'611.9
2018-May-20 14:30N 55°42' E 012°36'0 0.2
2018-May-20 13:56N 55°42' E 012°36'0 0.0
2018-May-20 13:29N 55°42' E 012°36'0 0.0
2018-May-20 12:59N 55°42' E 012°36'0 0.0
2018-May-20 12:29N 55°42' E 012°36'0 0.0
2018-May-20 11:59N 55°42' E 012°36'0 0.0
2018-May-20 11:29N 55°42' E 012°36'0 0.0
2018-May-20 10:59N 55°42' E 012°36'0 0.0
2018-May-20 10:29N 55°42' E 012°36'0 0.0
2018-May-20 09:59N 55°42' E 012°36'0 0.0
2018-May-20 09:29N 55°42' E 012°36'0 0.0
2018-May-20 08:59N 55°42' E 012°36'0 0.0
2018-May-20 08:29N 55°42' E 012°36'0 0.0
2018-May-20 07:59N 55°42' E 012°36'0 0.9
2018-May-20 07:30N 55°42' E 012°36'611.5
2018-May-20 07:00N 55°47' E 012°42'713.8
2018-May-20 06:30N 55°54' E 012°39'714.3
2018-May-20 06:01N 56°01' E 012°40'713.9
2018-May-20 05:31N 56°07' E 012°32'714.5
2018-May-20 05:01N 56°13' E 012°26'815.0
2018-May-20 04:30N 56°21' E 012°22'4015.9
2018-May-20 01:57N 56°59' E 012°00'715.6
2018-May-20 01:31N 57°06' E 011°57'816.0
2018-May-20 01:01N 57°13' E 011°52'816.3
2018-May-20 00:31N 57°21' E 011°45'816.9
2018-May-20 00:01N 57°28' E 011°37'917.0
2018-May-19 23:31N 57°35' E 011°29'917.2
2018-May-19 23:01N 57°43' E 011°21'917.3
2018-May-19 22:31N 57°51' E 011°16'917.0
2018-May-19 22:00N 57°59' E 011°11'816.8
2018-May-19 21:31N 58°07' E 011°06'816.6
2018-May-19 21:01N 58°15' E 011°01'816.2
2018-May-19 20:31N 58°23' E 010°58'816.4
2018-May-19 20:01N 58°31' E 010°54'816.4
2018-May-19 19:30N 58°38' E 010°49'816.6
2018-May-19 19:00N 58°47' E 010°46'917.2
2018-May-19 18:31N 58°55' E 010°43'917.4
2018-May-19 18:01N 59°04' E 010°40'917.0
2018-May-19 17:31N 59°12' E 010°38'816.9
2018-May-19 17:01N 59°20' E 010°35'816.6
2018-May-19 16:31N 59°29' E 010°34'714.5
2018-May-19 16:01N 59°36' E 010°38'713.1
2018-May-19 15:30N 59°42' E 010°35'815.4
2018-May-19 15:00N 59°50' E 010°34'713.1
2018-May-19 14:30N 59°54' E 010°44'0 0.5
2018-May-19 13:59N 59°54' E 010°45'0 0.0
2018-May-19 13:29N 59°54' E 010°45'0 0.0
2018-May-19 12:59N 59°54' E 010°45'0 0.0
2018-May-19 12:29N 59°54' E 010°45'0 0.0
2018-May-19 11:59N 59°54' E 010°45'0 0.0
2018-May-19 11:29N 59°54' E 010°45'0 0.0
2018-May-19 10:59N 59°54' E 010°45'0 0.0
2018-May-19 10:29N 59°54' E 010°45'0 0.0
2018-May-19 09:59N 59°54' E 010°45'0 0.0
2018-May-19 09:29N 59°54' E 010°45'0 0.0
2018-May-19 08:59N 59°54' E 010°45'0 0.0
2018-May-19 08:29N 59°54' E 010°45'0 0.0
2018-May-19 07:59N 59°54' E 010°45'0 0.6
2018-May-19 07:30N 59°54' E 010°44'713.8
2018-May-19 07:00N 59°49' E 010°35'815.5
2018-May-19 06:30N 59°41' E 010°36'714.2
2018-May-19 06:00N 59°34' E 010°38'815.5
2018-May-19 05:30N 59°27' E 010°34'815.3
2018-May-19 05:00N 59°19' E 010°36'815.3
2018-May-19 04:30N 59°12' E 010°39'815.3
2018-May-19 04:00N 59°04' E 010°41'815.4
2018-May-19 03:30N 58°57' E 010°43'815.5
2018-May-19 03:00N 58°49' E 010°46'815.6
2018-May-19 02:30N 58°41' E 010°48'815.6
2018-May-19 02:00N 58°33' E 010°51'815.7
2018-May-19 01:30N 58°26' E 010°55'815.9
2018-May-19 01:00N 58°18' E 011°00'815.9
2018-May-19 00:30N 58°11' E 011°05'815.8
2018-May-19 00:00N 58°03' E 011°09'816.2
2018-May-18 23:30N 57°56' E 011°14'816.2
2018-May-18 23:00N 57°48' E 011°19'816.1
2018-May-18 22:30N 57°41' E 011°25'816.3
2018-May-18 22:00N 57°33' E 011°31'816.3
2018-May-18 21:30N 57°26' E 011°39'816.2
2018-May-18 21:00N 57°19' E 011°46'816.2
2018-May-18 20:30N 57°12' E 011°54'816.2
2018-May-18 20:00N 57°05' E 011°60'816.2
2018-May-18 19:30N 56°57' E 012°05'5216.1
2018-May-18 16:17N 56°07' E 012°33'517.2
2018-May-18 16:01N 56°04' E 012°38'816.3
2018-May-18 15:31N 55°56' E 012°43'815.7
2018-May-18 15:01N 55°48' E 012°43'714.0
2018-May-18 14:30N 55°42' E 012°37'1 1.1
2018-May-18 13:57N 55°42' E 012°36'0 0.0
2018-May-18 13:27N 55°42' E 012°36'0 0.0
2018-May-18 12:57N 55°42' E 012°36'0 0.0
2018-May-18 12:27N 55°42' E 012°36'0 0.0
2018-May-18 11:57N 55°42' E 012°36'0 0.0
2018-May-18 11:27N 55°42' E 012°36'0 0.0
2018-May-18 10:57N 55°42' E 012°36'0 0.0
2018-May-18 10:27N 55°42' E 012°36'0 0.0
2018-May-18 09:57N 55°42' E 012°36'0 0.0
2018-May-18 09:27N 55°42' E 012°36'0 0.0
2018-May-18 08:57N 55°42' E 012°36'0 0.0
2018-May-18 08:27N 55°42' E 012°36'0 0.0
2018-May-18 07:57N 55°42' E 012°36'0 0.8
2018-May-18 07:31N 55°42' E 012°36'4 8.7
2018-May-18 07:00N 55°46' E 012°41'713.1
2018-May-18 06:30N 55°52' E 012°40'713.5
2018-May-18 06:01N 55°59' E 012°40'813.4
2018-May-18 05:23N 56°06' E 012°33'614.8
2018-May-18 04:57N 56°12' E 012°27'6115.6
2018-May-18 01:02N 57°10' E 011°54'015.9
2018-May-18 01:00N 57°11' E 011°54'815.6
2018-May-18 00:30N 57°18' E 011°47'815.5
2018-May-18 00:00N 57°24' E 011°39'815.6
2018-May-17 23:30N 57°31' E 011°32'816.1
2018-May-17 23:00N 57°38' E 011°26'816.5
2018-May-17 22:30N 57°46' E 011°20'816.3
2018-May-17 22:00N 57°54' E 011°15'816.2
2018-May-17 21:30N 58°01' E 011°10'816.2
2018-May-17 21:00N 58°09' E 011°06'816.2
2018-May-17 20:30N 58°17' E 011°01'816.3
2018-May-17 20:00N 58°25' E 010°57'816.7
2018-May-17 19:30N 58°33' E 010°53'917.4
2018-May-17 19:00N 58°41' E 010°48'917.6
2018-May-17 18:30N 58°50' E 010°45'917.5
2018-May-17 18:00N 58°58' E 010°42'917.6
2018-May-17 17:30N 59°07' E 010°39'918.6
2018-May-17 17:00N 59°16' E 010°36'918.1
2018-May-17 16:30N 59°25' E 010°33'917.2
2018-May-17 16:00N 59°33' E 010°37'713.8
2018-May-17 15:30N 59°40' E 010°37'815.1
2018-May-17 15:00N 59°48' E 010°34'815.2
2018-May-17 14:30N 59°54' E 010°43'1 2.1
2018-May-17 13:59N 59°54' E 010°45'0 0.0
2018-May-17 13:29N 59°54' E 010°45'0 0.0
2018-May-17 12:59N 59°54' E 010°45'0 0.0
2018-May-17 12:29N 59°54' E 010°45'0 0.0
2018-May-17 11:59N 59°54' E 010°45'0 0.0
2018-May-17 11:29N 59°54' E 010°45'0 0.0
2018-May-17 10:59N 59°54' E 010°45'0 0.0
2018-May-17 10:29N 59°54' E 010°45'0 0.0
2018-May-17 09:59N 59°54' E 010°45'0 0.0
2018-May-17 09:29N 59°54' E 010°45'0 0.0
2018-May-17 08:59N 59°54' E 010°45'0 0.0
2018-May-17 08:29N 59°54' E 010°45'0 0.0
2018-May-17 07:59N 59°54' E 010°45'1 2.3
2018-May-17 07:30N 59°54' E 010°43'815.3
2018-May-17 07:01N 59°47' E 010°35'815.0
2018-May-17 06:30N 59°40' E 010°37'715.0
2018-May-17 06:01N 59°32' E 010°37'815.6
2018-May-17 05:31N 59°25' E 010°34'815.7
2018-May-17 05:01N 59°17' E 010°37'815.6
2018-May-17 04:31N 59°09' E 010°39'815.8
2018-May-17 04:01N 59°02' E 010°42'816.0
2018-May-17 03:31N 58°54' E 010°44'815.9
2018-May-17 03:00N 58°46' E 010°47'816.0
2018-May-17 02:31N 58°38' E 010°49'816.3
2018-May-17 02:01N 58°30' E 010°53'917.1
2018-May-17 01:30N 58°22' E 010°59'917.4
2018-May-17 01:00N 58°14' E 011°05'917.5
2018-May-17 00:30N 58°06' E 011°11'917.5
2018-May-17 00:01N 57°58' E 011°16'917.3
2018-May-16 23:31N 57°49' E 011°22'816.7
2018-May-16 23:01N 57°42' E 011°29'612.1
2018-May-16 22:30N 57°36' E 011°33'510.7
2018-May-16 22:01N 57°31' E 011°35'713.9
2018-May-16 21:30N 57°24' E 011°39'816.8
2018-May-16 21:00N 57°17' E 011°48'816.7
2018-May-16 20:30N 57°10' E 011°55'816.8
2018-May-16 20:00N 57°02' E 012°01'816.7
2018-May-16 19:30N 56°55' E 012°07'816.3
2018-May-16 19:00N 56°47' E 012°12'816.2
2018-May-16 18:30N 56°39' E 012°16'916.1
2018-May-16 17:56N 56°30' E 012°21'715.9
2018-May-16 17:30N 56°23' E 012°23'1316.3
2018-May-16 16:42N 56°11' E 012°30'516.3
2018-May-16 16:22N 56°06' E 012°34'615.8
2018-May-16 16:00N 56°02' E 012°40'815.6
2018-May-16 15:30N 55°54' E 012°44'714.8
2018-May-16 15:00N 55°47' E 012°42'611.8
2018-May-16 14:30N 55°42' E 012°36'0 0.1
2018-May-16 13:58N 55°42' E 012°36'0 0.0
2018-May-16 13:28N 55°42' E 012°36'0 0.0
2018-May-16 12:58N 55°42' E 012°36'0 0.0
2018-May-16 12:28N 55°42' E 012°36'0 0.0
2018-May-16 11:55N 55°42' E 012°36'0 0.0
2018-May-16 11:28N 55°42' E 012°36'0 0.0
2018-May-16 10:58N 55°42' E 012°36'0 0.0
2018-May-16 10:28N 55°42' E 012°36'0 0.0
2018-May-16 09:58N 55°42' E 012°36'0 0.0
2018-May-16 09:28N 55°42' E 012°36'0 0.0
2018-May-16 08:55N 55°42' E 012°36'0 0.0
2018-May-16 08:28N 55°42' E 012°36'0 0.0
2018-May-16 07:55N 55°42' E 012°36'0 0.7
2018-May-16 07:31N 55°42' E 012°36'511.0
2018-May-16 07:01N 55°47' E 012°42'713.9
2018-May-16 06:31N 55°54' E 012°39'714.1
2018-May-16 06:01N 56°01' E 012°40'713.4
2018-May-16 05:30N 56°06' E 012°33'714.8
2018-May-16 05:00N 56°13' E 012°27'715.0
2018-May-16 04:30N 56°20' E 012°22'815.2
2018-May-16 04:00N 56°27' E 012°18'816.2
2018-May-16 03:30N 56°35' E 012°13'4116.3
2018-May-16 01:01N 57°14' E 011°52'017.2
2018-May-16 01:00N 57°14' E 011°52'816.3
2018-May-16 00:30N 57°20' E 011°44'816.7
2018-May-16 00:00N 57°27' E 011°35'816.7
2018-May-15 23:30N 57°34' E 011°27'917.0
2018-May-15 23:00N 57°42' E 011°20'817.0
2018-May-15 22:30N 57°50' E 011°16'816.9
2018-May-15 22:00N 57°58' E 011°12'816.7
2018-May-15 21:30N 58°06' E 011°07'816.0
2018-May-15 21:00N 58°14' E 011°03'815.7
2018-May-15 20:30N 58°22' E 010°59'816.3
2018-May-15 20:00N 58°30' E 010°55'816.7
2018-May-15 19:30N 58°38' E 010°50'917.0
2018-May-15 19:00N 58°46' E 010°46'917.2
2018-May-15 18:30N 58°54' E 010°43'917.5
2018-May-15 18:00N 59°03' E 010°41'917.3
2018-May-15 17:30N 59°11' E 010°38'917.3
2018-May-15 17:00N 59°20' E 010°35'817.0
2018-May-15 16:30N 59°28' E 010°34'815.6
2018-May-15 16:01N 59°36' E 010°38'612.8
2018-May-15 15:30N 59°42' E 010°35'815.5
2018-May-15 15:01N 59°50' E 010°35'713.1
2018-May-15 14:30N 59°54' E 010°45'0 0.3
2018-May-15 14:00N 59°54' E 010°45'0 0.0
2018-May-15 13:29N 59°54' E 010°45'0 0.0
2018-May-15 12:59N 59°54' E 010°45'0 0.0
2018-May-15 12:29N 59°54' E 010°45'0 0.0
2018-May-15 11:59N 59°54' E 010°45'0 0.0
2018-May-15 11:29N 59°54' E 010°45'0 0.0
2018-May-15 10:59N 59°54' E 010°45'0 0.0
2018-May-15 10:29N 59°54' E 010°45'0 0.0
2018-May-15 09:59N 59°54' E 010°45'0 0.0
2018-May-15 09:29N 59°54' E 010°45'0 0.0
2018-May-15 08:59N 59°54' E 010°45'0 0.0
2018-May-15 08:29N 59°54' E 010°45'0 0.0
2018-May-15 07:59N 59°54' E 010°45'1 1.7
2018-May-15 07:30N 59°54' E 010°43'714.0
2018-May-15 07:00N 59°48' E 010°35'713.9
2018-May-15 06:31N 59°41' E 010°36'713.7
2018-May-15 06:00N 59°35' E 010°38'815.8
2018-May-15 05:31N 59°27' E 010°34'815.4
2018-May-15 05:01N 59°19' E 010°36'815.5
2018-May-15 04:31N 59°12' E 010°39'815.1
2018-May-15 04:01N 59°04' E 010°40'815.2
2018-May-15 03:31N 58°57' E 010°42'815.4
2018-May-15 03:01N 58°49' E 010°44'815.4
2018-May-15 02:31N 58°41' E 010°46'815.7
2018-May-15 02:01N 58°34' E 010°50'815.6
2018-May-15 01:31N 58°27' E 010°55'815.8
2018-May-15 01:01N 58°19' E 010°59'816.5
2018-May-15 00:30N 58°11' E 011°04'816.2
2018-May-15 00:00N 58°03' E 011°08'816.4
2018-May-14 23:31N 57°56' E 011°13'816.0
2018-May-14 23:01N 57°48' E 011°17'815.9
2018-May-14 22:31N 57°41' E 011°26'815.8
2018-May-14 22:01N 57°34' E 011°32'816.1
2018-May-14 21:31N 57°27' E 011°38'816.4
2018-May-14 21:00N 57°19' E 011°45'816.4
2018-May-14 20:30N 57°12' E 011°52'816.4
2018-May-14 20:00N 57°04' E 011°57'815.9
2018-May-14 19:30N 56°57' E 012°02'5216.1
2018-May-14 16:16N 56°07' E 012°33'417.6
2018-May-14 16:01N 56°04' E 012°38'816.4
2018-May-14 15:31N 55°56' E 012°43'815.9
2018-May-14 15:00N 55°48' E 012°43'714.0
2018-May-14 14:30N 55°42' E 012°37'1 1.0
2018-May-14 14:00N 55°42' E 012°36'  
Track history (hours):
 
Tides and Currents Weather Stations Pressure Air Temp Water Temp Dewpoint Dewpoint Depression Visibility Wind Speed Wind Dir Waves Ship Positions

Pearl Of Scandinavia

Last reported at 2018-May-24 13:29 UTC. Time now 2018-May-24 13:57 UTC.
Position N 55°42' E 012°36'.

Length 176.4 m; beam 34 m; draft 6.215 m.

Type: Ship. MMSI: 219945000.

Date/timePositionNaut miles runAvg speedWind from/ knotsBaromVisibWave heightAir tempDewpointWater temp
2018-May-24 13:29N 55°42' E 012°36'0 0.0
2018-May-24 08:59N 55°42' E 012°36'0 0.0
2018-May-24 08:26N 55°42' E 012°36'0 0.0
2018-May-24 07:59N 55°42' E 012°36'0 0.7
2018-May-24 07:30N 55°42' E 012°36'611.1
2018-May-24 07:00N 55°47' E 012°42'714.1
2018-May-24 06:30N 55°54' E 012°39'714.4
2018-May-24 06:00N 56°01' E 012°40'714.3
2018-May-24 05:31N 56°07' E 012°32'815.3
2018-May-24 05:00N 56°14' E 012°26'815.9
2018-May-24 04:30N 56°21' E 012°22'816.3
2018-May-24 04:00N 56°29' E 012°19'815.7
2018-May-24 03:30N 56°37' E 012°15'4315.9
2018-May-24 00:48N 57°18' E 011°49'517.0
2018-May-24 00:30N 57°21' E 011°43'817.1
2018-May-24 00:00N 57°28' E 011°34'917.2
2018-May-23 23:31N 57°36' E 011°26'917.1
2018-May-23 23:00N 57°43' E 011°19'816.6
2018-May-23 22:31N 57°51' E 011°15'816.6
2018-May-23 22:01N 57°59' E 011°11'816.5
2018-May-23 21:30N 58°07' E 011°06'816.3
2018-May-23 21:00N 58°15' E 011°00'816.1
2018-May-23 20:30N 58°23' E 010°56'816.0
2018-May-23 20:00N 58°30' E 010°52'816.2
2018-May-23 19:30N 58°38' E 010°49'815.7
2018-May-23 19:00N 58°46' E 010°46'816.4
2018-May-23 18:30N 58°54' E 010°43'816.9
2018-May-23 18:00N 59°02' E 010°41'816.7
2018-May-23 17:30N 59°11' E 010°38'917.1
2018-May-23 17:01N 59°19' E 010°35'816.7
2018-May-23 16:30N 59°27' E 010°33'815.5
2018-May-23 16:00N 59°35' E 010°38'713.0
2018-May-23 15:30N 59°41' E 010°36'815.6
2018-May-23 15:00N 59°49' E 010°34'714.3
2018-May-23 14:30N 59°54' E 010°44'0 0.7
2018-May-23 14:00N 59°54' E 010°45'0 0.0
2018-May-23 13:30N 59°54' E 010°45'0 0.0
2018-May-23 13:00N 59°54' E 010°45'0 0.0
2018-May-23 12:30N 59°54' E 010°45'0 0.0
2018-May-23 12:00N 59°54' E 010°45'0 0.0
2018-May-23 11:30N 59°54' E 010°45'0 0.0
2018-May-23 11:00N 59°54' E 010°45'0 0.0
2018-May-23 10:30N 59°54' E 010°45'0 0.0
2018-May-23 10:00N 59°54' E 010°45'0 0.0
2018-May-23 09:30N 59°54' E 010°45'0 0.0
2018-May-23 09:00N 59°54' E 010°45'0 0.0
2018-May-23 08:30N 59°54' E 010°45'0 0.0
2018-May-23 08:00N 59°54' E 010°45'1 1.1
2018-May-23 07:30N 59°54' E 010°44'714.1
2018-May-23 07:00N 59°49' E 010°35'714.6
2018-May-23 06:30N 59°41' E 010°36'713.9
2018-May-23 06:01N 59°35' E 010°38'815.0
2018-May-23 05:31N 59°27' E 010°34'815.4
2018-May-23 05:01N 59°20' E 010°36'815.4
2018-May-23 04:31N 59°12' E 010°39'815.7
2018-May-23 04:00N 59°04' E 010°41'815.4
2018-May-23 03:30N 58°57' E 010°43'714.0
2018-May-23 03:01N 58°50' E 010°46'714.4
2018-May-23 02:31N 58°43' E 010°48'816.0
2018-May-23 02:01N 58°35' E 010°51'816.0
2018-May-23 01:30N 58°27' E 010°56'816.5
2018-May-23 01:01N 58°19' E 010°60'816.8
2018-May-23 00:31N 58°11' E 011°05'816.5
2018-May-23 00:01N 58°03' E 011°09'816.6
2018-May-22 23:30N 57°55' E 011°14'816.5
2018-May-22 23:00N 57°48' E 011°20'816.4
2018-May-22 22:30N 57°40' E 011°26'816.3
2018-May-22 22:00N 57°33' E 011°31'816.2
2018-May-22 21:30N 57°25' E 011°38'816.5
2018-May-22 21:00N 57°19' E 011°47'916.7
2018-May-22 20:28N 57°11' E 011°55'6716.3
2018-May-22 16:20N 56°07' E 012°34'617.4
2018-May-22 16:01N 56°02' E 012°40'816.8
2018-May-22 15:31N 55°54' E 012°44'816.2
2018-May-22 15:01N 55°46' E 012°42'510.9
2018-May-22 14:31N 55°42' E 012°36'0 0.0
2018-May-22 14:00N 55°42' E 012°36'0 0.0
2018-May-22 13:30N 55°42' E 012°36'0 0.0
2018-May-22 13:00N 55°42' E 012°36'0 0.0
2018-May-22 12:30N 55°42' E 012°36'0 0.0
2018-May-22 12:00N 55°42' E 012°36'0 0.0
2018-May-22 11:30N 55°42' E 012°36'0 0.0
2018-May-22 10:54N 55°42' E 012°36'0 0.0
2018-May-22 10:30N 55°42' E 012°36'0 0.0
2018-May-22 09:57N 55°42' E 012°36'0 0.0
2018-May-22 09:30N 55°42' E 012°36'0 0.0
2018-May-22 09:00N 55°42' E 012°36'0 0.0
2018-May-22 08:30N 55°42' E 012°36'0 0.0
2018-May-22 08:00N 55°42' E 012°36'0 0.7
2018-May-22 07:30N 55°42' E 012°36'510.3
2018-May-22 07:00N 55°47' E 012°41'714.3
2018-May-22 06:30N 55°54' E 012°40'815.3
2018-May-22 06:00N 56°01' E 012°40'714.1
2018-May-22 05:30N 56°07' E 012°32'714.7
2018-May-22 05:00N 56°13' E 012°26'6115.7
2018-May-22 01:07N 57°12' E 011°53'216.4
2018-May-22 00:59N 57°14' E 011°52'816.1
2018-May-22 00:30N 57°20' E 011°43'816.0
2018-May-22 00:00N 57°26' E 011°34'816.4
2018-May-21 23:31N 57°33' E 011°25'917.0
2018-May-21 23:00N 57°40' E 011°15'917.1
2018-May-21 22:31N 57°47' E 011°07'816.6
2018-May-21 22:00N 57°55' E 011°02'816.1
2018-May-21 21:31N 58°02' E 010°56'816.4
2018-May-21 21:01N 58°10' E 010°51'816.6
2018-May-21 20:31N 58°18' E 010°45'917.1
2018-May-21 20:01N 58°26' E 010°41'917.2
2018-May-21 19:31N 58°34' E 010°39'817.0
2018-May-21 19:01N 58°43' E 010°37'917.1
2018-May-21 18:31N 58°51' E 010°38'917.3
2018-May-21 18:01N 59°00' E 010°39'917.0
2018-May-21 17:31N 59°09' E 010°38'816.8
2018-May-21 17:01N 59°17' E 010°36'816.7
2018-May-21 16:31N 59°25' E 010°33'816.8
2018-May-21 16:01N 59°33' E 010°37'713.5
2018-May-21 15:31N 59°40' E 010°37'714.8
2018-May-21 15:00N 59°47' E 010°34'815.2
2018-May-21 14:30N 59°54' E 010°42'2 3.0
2018-May-21 13:59N 59°54' E 010°45'0 0.0
2018-May-21 13:29N 59°54' E 010°45'0 0.0
2018-May-21 12:59N 59°54' E 010°45'0 0.0
2018-May-21 12:29N 59°54' E 010°45'0 0.0
2018-May-21 11:59N 59°54' E 010°45'0 0.0
2018-May-21 11:29N 59°54' E 010°45'0 0.0
2018-May-21 10:59N 59°54' E 010°45'0 0.0
2018-May-21 10:29N 59°54' E 010°45'0 0.0
2018-May-21 09:59N 59°54' E 010°45'0 0.0
2018-May-21 09:29N 59°54' E 010°45'0 0.0
2018-May-21 08:59N 59°54' E 010°45'0 0.0
2018-May-21 08:29N 59°54' E 010°45'0 0.0
2018-May-21 07:59N 59°54' E 010°45'0 0.7
2018-May-21 07:30N 59°54' E 010°44'714.0
2018-May-21 07:00N 59°49' E 010°35'815.0
2018-May-21 06:30N 59°41' E 010°36'713.9
2018-May-21 06:00N 59°34' E 010°38'714.1
2018-May-21 05:30N 59°28' E 010°34'815.3
2018-May-21 05:00N 59°20' E 010°36'815.7
2018-May-21 04:30N 59°12' E 010°38'815.9
2018-May-21 04:00N 59°04' E 010°41'815.7
2018-May-21 03:30N 58°57' E 010°44'815.5
2018-May-21 03:00N 58°49' E 010°46'815.6
2018-May-21 02:30N 58°41' E 010°48'815.6
2018-May-21 02:00N 58°34' E 010°51'815.9
2018-May-21 01:30N 58°26' E 010°56'816.5
2018-May-21 01:00N 58°18' E 011°01'816.4
2018-May-21 00:30N 58°10' E 011°06'816.7
2018-May-21 00:00N 58°03' E 011°11'816.2
2018-May-20 23:30N 57°55' E 011°16'816.0
2018-May-20 23:00N 57°47' E 011°21'816.0
2018-May-20 22:30N 57°40' E 011°26'816.2
2018-May-20 22:00N 57°32' E 011°32'815.8
2018-May-20 21:30N 57°25' E 011°38'816.3
2018-May-20 21:00N 57°18' E 011°47'816.3
2018-May-20 20:30N 57°11' E 011°54'816.3
2018-May-20 20:00N 57°04' E 012°00'816.4
2018-May-20 19:30N 56°56' E 012°05'916.1
2018-May-20 18:58N 56°48' E 012°11'716.0
2018-May-20 18:30N 56°41' E 012°15'815.9
2018-May-20 18:00N 56°33' E 012°18'816.5
2018-May-20 17:30N 56°25' E 012°22'816.6
2018-May-20 17:00N 56°18' E 012°26'1316.4
2018-May-20 16:14N 56°06' E 012°35'416.9
2018-May-20 16:00N 56°03' E 012°39'816.6
2018-May-20 15:30N 55°55' E 012°44'816.1
2018-May-20 15:00N 55°47' E 012°42'611.9
2018-May-20 14:30N 55°42' E 012°36'0 0.2
2018-May-20 13:56N 55°42' E 012°36'0 0.0
2018-May-20 13:29N 55°42' E 012°36'0 0.0
2018-May-20 12:59N 55°42' E 012°36'0 0.0
2018-May-20 12:29N 55°42' E 012°36'0 0.0
2018-May-20 11:59N 55°42' E 012°36'0 0.0
2018-May-20 11:29N 55°42' E 012°36'0 0.0
2018-May-20 10:59N 55°42' E 012°36'0 0.0
2018-May-20 10:29N 55°42' E 012°36'0 0.0
2018-May-20 09:59N 55°42' E 012°36'0 0.0
2018-May-20 09:29N 55°42' E 012°36'0 0.0
2018-May-20 08:59N 55°42' E 012°36'0 0.0
2018-May-20 08:29N 55°42' E 012°36'0 0.0
2018-May-20 07:59N 55°42' E 012°36'0 0.9
2018-May-20 07:30N 55°42' E 012°36'611.5
2018-May-20 07:00N 55°47' E 012°42'713.8
2018-May-20 06:30N 55°54' E 012°39'714.3
2018-May-20 06:01N 56°01' E 012°40'713.9
2018-May-20 05:31N 56°07' E 012°32'714.5
2018-May-20 05:01N 56°13' E 012°26'815.0
2018-May-20 04:30N 56°21' E 012°22'4015.9
2018-May-20 01:57N 56°59' E 012°00'715.6
2018-May-20 01:31N 57°06' E 011°57'816.0
2018-May-20 01:01N 57°13' E 011°52'816.3
2018-May-20 00:31N 57°21' E 011°45'816.9
2018-May-20 00:01N 57°28' E 011°37'917.0
2018-May-19 23:31N 57°35' E 011°29'917.2
2018-May-19 23:01N 57°43' E 011°21'917.3
2018-May-19 22:31N 57°51' E 011°16'917.0
2018-May-19 22:00N 57°59' E 011°11'816.8
2018-May-19 21:31N 58°07' E 011°06'816.6
2018-May-19 21:01N 58°15' E 011°01'816.2
2018-May-19 20:31N 58°23' E 010°58'816.4
2018-May-19 20:01N 58°31' E 010°54'816.4
2018-May-19 19:30N 58°38' E 010°49'816.6
2018-May-19 19:00N 58°47' E 010°46'917.2
2018-May-19 18:31N 58°55' E 010°43'917.4
2018-May-19 18:01N 59°04' E 010°40'917.0
2018-May-19 17:31N 59°12' E 010°38'816.9
2018-May-19 17:01N 59°20' E 010°35'816.6
2018-May-19 16:31N 59°29' E 010°34'714.5
2018-May-19 16:01N 59°36' E 010°38'713.1
2018-May-19 15:30N 59°42' E 010°35'815.4
2018-May-19 15:00N 59°50' E 010°34'713.1
2018-May-19 14:30N 59°54' E 010°44'0 0.5
2018-May-19 13:59N 59°54' E 010°45'0 0.0
2018-May-19 13:29N 59°54' E 010°45'0 0.0
2018-May-19 12:59N 59°54' E 010°45'0 0.0
2018-May-19 12:29N 59°54' E 010°45'0 0.0
2018-May-19 11:59N 59°54' E 010°45'0 0.0
2018-May-19 11:29N 59°54' E 010°45'0 0.0
2018-May-19 10:59N 59°54' E 010°45'0 0.0
2018-May-19 10:29N 59°54' E 010°45'0 0.0
2018-May-19 09:59N 59°54' E 010°45'0 0.0
2018-May-19 09:29N 59°54' E 010°45'0 0.0
2018-May-19 08:59N 59°54' E 010°45'0 0.0
2018-May-19 08:29N 59°54' E 010°45'0 0.0
2018-May-19 07:59N 59°54' E 010°45'0 0.6
2018-May-19 07:30N 59°54' E 010°44'713.8
2018-May-19 07:00N 59°49' E 010°35'815.5
2018-May-19 06:30N 59°41' E 010°36'714.2
2018-May-19 06:00N 59°34' E 010°38'815.5
2018-May-19 05:30N 59°27' E 010°34'815.3
2018-May-19 05:00N 59°19' E 010°36'815.3
2018-May-19 04:30N 59°12' E 010°39'815.3
2018-May-19 04:00N 59°04' E 010°41'815.4
2018-May-19 03:30N 58°57' E 010°43'815.5
2018-May-19 03:00N 58°49' E 010°46'815.6
2018-May-19 02:30N 58°41' E 010°48'815.6
2018-May-19 02:00N 58°33' E 010°51'815.7
2018-May-19 01:30N 58°26' E 010°55'815.9
2018-May-19 01:00N 58°18' E 011°00'815.9
2018-May-19 00:30N 58°11' E 011°05'815.8
2018-May-19 00:00N 58°03' E 011°09'816.2
2018-May-18 23:30N 57°56' E 011°14'816.2
2018-May-18 23:00N 57°48' E 011°19'816.1
2018-May-18 22:30N 57°41' E 011°25'816.3
2018-May-18 22:00N 57°33' E 011°31'816.3
2018-May-18 21:30N 57°26' E 011°39'816.2
2018-May-18 21:00N 57°19' E 011°46'816.2
2018-May-18 20:30N 57°12' E 011°54'816.2
2018-May-18 20:00N 57°05' E 011°60'816.2
2018-May-18 19:30N 56°57' E 012°05'5216.1
2018-May-18 16:17N 56°07' E 012°33'517.2
2018-May-18 16:01N 56°04' E 012°38'816.3
2018-May-18 15:31N 55°56' E 012°43'815.7
2018-May-18 15:01N 55°48' E 012°43'714.0
2018-May-18 14:30N 55°42' E 012°37'1 1.1
2018-May-18 13:57N 55°42' E 012°36'0 0.0
2018-May-18 13:27N 55°42' E 012°36'0 0.0
2018-May-18 12:57N 55°42' E 012°36'0 0.0
2018-May-18 12:27N 55°42' E 012°36'0 0.0
2018-May-18 11:57N 55°42' E 012°36'0 0.0
2018-May-18 11:27N 55°42' E 012°36'0 0.0
2018-May-18 10:57N 55°42' E 012°36'0 0.0
2018-May-18 10:27N 55°42' E 012°36'0 0.0
2018-May-18 09:57N 55°42' E 012°36'0 0.0
2018-May-18 09:27N 55°42' E 012°36'0 0.0
2018-May-18 08:57N 55°42' E 012°36'0 0.0
2018-May-18 08:27N 55°42' E 012°36'0 0.0
2018-May-18 07:57N 55°42' E 012°36'0 0.8
2018-May-18 07:31N 55°42' E 012°36'4 8.7
2018-May-18 07:00N 55°46' E 012°41'713.1
2018-May-18 06:30N 55°52' E 012°40'713.5
2018-May-18 06:01N 55°59' E 012°40'813.4
2018-May-18 05:23N 56°06' E 012°33'614.8
2018-May-18 04:57N 56°12' E 012°27'6115.6
2018-May-18 01:02N 57°10' E 011°54'015.9
2018-May-18 01:00N 57°11' E 011°54'815.6
2018-May-18 00:30N 57°18' E 011°47'815.5
2018-May-18 00:00N 57°24' E 011°39'815.6
2018-May-17 23:30N 57°31' E 011°32'816.1
2018-May-17 23:00N 57°38' E 011°26'816.5
2018-May-17 22:30N 57°46' E 011°20'816.3
2018-May-17 22:00N 57°54' E 011°15'816.2
2018-May-17 21:30N 58°01' E 011°10'816.2
2018-May-17 21:00N 58°09' E 011°06'816.2
2018-May-17 20:30N 58°17' E 011°01'816.3
2018-May-17 20:00N 58°25' E 010°57'816.7
2018-May-17 19:30N 58°33' E 010°53'917.4
2018-May-17 19:00N 58°41' E 010°48'917.6
2018-May-17 18:30N 58°50' E 010°45'917.5
2018-May-17 18:00N 58°58' E 010°42'917.6
2018-May-17 17:30N 59°07' E 010°39'918.6
2018-May-17 17:00N 59°16' E 010°36'918.1
2018-May-17 16:30N 59°25' E 010°33'917.2
2018-May-17 16:00N 59°33' E 010°37'713.8
2018-May-17 15:30N 59°40' E 010°37'815.1
2018-May-17 15:00N 59°48' E 010°34'815.2
2018-May-17 14:30N 59°54' E 010°43'1 2.1
2018-May-17 13:59N 59°54' E 010°45'0 0.0
2018-May-17 13:29N 59°54' E 010°45'0 0.0
2018-May-17 12:59N 59°54' E 010°45'0 0.0
2018-May-17 12:29N 59°54' E 010°45'0 0.0
2018-May-17 11:59N 59°54' E 010°45'0 0.0
2018-May-17 11:29N 59°54' E 010°45'0 0.0
2018-May-17 10:59N 59°54' E 010°45'0 0.0
2018-May-17 10:29N 59°54' E 010°45'0 0.0
2018-May-17 09:59N 59°54' E 010°45'0 0.0
2018-May-17 09:29N 59°54' E 010°45'0 0.0
2018-May-17 08:59N 59°54' E 010°45'0 0.0
2018-May-17 08:29N 59°54' E 010°45'0 0.0
2018-May-17 07:59N 59°54' E 010°45'1 2.3
2018-May-17 07:30N 59°54' E 010°43'815.3
2018-May-17 07:01N 59°47' E 010°35'815.0
2018-May-17 06:30N 59°40' E 010°37'715.0
2018-May-17 06:01N 59°32' E 010°37'815.6
2018-May-17 05:31N 59°25' E 010°34'815.7
2018-May-17 05:01N 59°17' E 010°37'815.6
2018-May-17 04:31N 59°09' E 010°39'815.8
2018-May-17 04:01N 59°02' E 010°42'816.0
2018-May-17 03:31N 58°54' E 010°44'815.9
2018-May-17 03:00N 58°46' E 010°47'816.0
2018-May-17 02:31N 58°38' E 010°49'816.3
2018-May-17 02:01N 58°30' E 010°53'917.1
2018-May-17 01:30N 58°22' E 010°59'917.4
2018-May-17 01:00N 58°14' E 011°05'917.5
2018-May-17 00:30N 58°06' E 011°11'917.5
2018-May-17 00:01N 57°58' E 011°16'917.3
2018-May-16 23:31N 57°49' E 011°22'816.7
2018-May-16 23:01N 57°42' E 011°29'612.1
2018-May-16 22:30N 57°36' E 011°33'510.7
2018-May-16 22:01N 57°31' E 011°35'713.9
2018-May-16 21:30N 57°24' E 011°39'816.8
2018-May-16 21:00N 57°17' E 011°48'816.7
2018-May-16 20:30N 57°10' E 011°55'816.8
2018-May-16 20:00N 57°02' E 012°01'816.7
2018-May-16 19:30N 56°55' E 012°07'816.3
2018-May-16 19:00N 56°47' E 012°12'816.2
2018-May-16 18:30N 56°39' E 012°16'916.1
2018-May-16 17:56N 56°30' E 012°21'715.9
2018-May-16 17:30N 56°23' E 012°23'1316.3
2018-May-16 16:42N 56°11' E 012°30'516.3
2018-May-16 16:22N 56°06' E 012°34'615.8
2018-May-16 16:00N 56°02' E 012°40'815.6
2018-May-16 15:30N 55°54' E 012°44'714.8
2018-May-16 15:00N 55°47' E 012°42'611.8
2018-May-16 14:30N 55°42' E 012°36'0 0.1
2018-May-16 13:58N 55°42' E 012°36'0 0.0
2018-May-16 13:28N 55°42' E 012°36'0 0.0
2018-May-16 12:58N 55°42' E 012°36'0 0.0
2018-May-16 12:28N 55°42' E 012°36'0 0.0
2018-May-16 11:55N 55°42' E 012°36'0 0.0
2018-May-16 11:28N 55°42' E 012°36'0 0.0
2018-May-16 10:58N 55°42' E 012°36'0 0.0
2018-May-16 10:28N 55°42' E 012°36'0 0.0
2018-May-16 09:58N 55°42' E 012°36'0 0.0
2018-May-16 09:28N 55°42' E 012°36'0 0.0
2018-May-16 08:55N 55°42' E 012°36'0 0.0
2018-May-16 08:28N 55°42' E 012°36'0 0.0
2018-May-16 07:55N 55°42' E 012°36'0 0.7
2018-May-16 07:31N 55°42' E 012°36'511.0
2018-May-16 07:01N 55°47' E 012°42'713.9
2018-May-16 06:31N 55°54' E 012°39'714.1
2018-May-16 06:01N 56°01' E 012°40'713.4
2018-May-16 05:30N 56°06' E 012°33'714.8
2018-May-16 05:00N 56°13' E 012°27'715.0
2018-May-16 04:30N 56°20' E 012°22'815.2
2018-May-16 04:00N 56°27' E 012°18'816.2
2018-May-16 03:30N 56°35' E 012°13'4116.3
2018-May-16 01:01N 57°14' E 011°52'017.2
2018-May-16 01:00N 57°14' E 011°52'816.3
2018-May-16 00:30N 57°20' E 011°44'816.7
2018-May-16 00:00N 57°27' E 011°35'816.7
2018-May-15 23:30N 57°34' E 011°27'917.0
2018-May-15 23:00N 57°42' E 011°20'817.0
2018-May-15 22:30N 57°50' E 011°16'816.9
2018-May-15 22:00N 57°58' E 011°12'816.7
2018-May-15 21:30N 58°06' E 011°07'816.0
2018-May-15 21:00N 58°14' E 011°03'815.7
2018-May-15 20:30N 58°22' E 010°59'816.3
2018-May-15 20:00N 58°30' E 010°55'816.7
2018-May-15 19:30N 58°38' E 010°50'917.0
2018-May-15 19:00N 58°46' E 010°46'917.2
2018-May-15 18:30N 58°54' E 010°43'917.5
2018-May-15 18:00N 59°03' E 010°41'917.3
2018-May-15 17:30N 59°11' E 010°38'917.3
2018-May-15 17:00N 59°20' E 010°35'817.0
2018-May-15 16:30N 59°28' E 010°34'815.6
2018-May-15 16:01N 59°36' E 010°38'612.8
2018-May-15 15:30N 59°42' E 010°35'815.5
2018-May-15 15:01N 59°50' E 010°35'713.1
2018-May-15 14:30N 59°54' E 010°45'0 0.3
2018-May-15 14:00N 59°54' E 010°45'0 0.0
2018-May-15 13:29N 59°54' E 010°45'0 0.0
2018-May-15 12:59N 59°54' E 010°45'0 0.0
2018-May-15 12:29N 59°54' E 010°45'0 0.0
2018-May-15 11:59N 59°54' E 010°45'0 0.0
2018-May-15 11:29N 59°54' E 010°45'0 0.0
2018-May-15 10:59N 59°54' E 010°45'0 0.0
2018-May-15 10:29N 59°54' E 010°45'0 0.0
2018-May-15 09:59N 59°54' E 010°45'0 0.0
2018-May-15 09:29N 59°54' E 010°45'0 0.0
2018-May-15 08:59N 59°54' E 010°45'0 0.0
2018-May-15 08:29N 59°54' E 010°45'0 0.0
2018-May-15 07:59N 59°54' E 010°45'1 1.7
2018-May-15 07:30N 59°54' E 010°43'714.0
2018-May-15 07:00N 59°48' E 010°35'713.9
2018-May-15 06:31N 59°41' E 010°36'713.7
2018-May-15 06:00N 59°35' E 010°38'815.8
2018-May-15 05:31N 59°27' E 010°34'815.4
2018-May-15 05:01N 59°19' E 010°36'815.5
2018-May-15 04:31N 59°12' E 010°39'815.1
2018-May-15 04:01N 59°04' E 010°40'815.2
2018-May-15 03:31N 58°57' E 010°42'815.4
2018-May-15 03:01N 58°49' E 010°44'815.4
2018-May-15 02:31N 58°41' E 010°46'815.7
2018-May-15 02:01N 58°34' E 010°50'815.6
2018-May-15 01:31N 58°27' E 010°55'815.8
2018-May-15 01:01N 58°19' E 010°59'816.5
2018-May-15 00:30N 58°11' E 011°04'816.2
2018-May-15 00:00N 58°03' E 011°08'816.4
2018-May-14 23:31N 57°56' E 011°13'816.0
2018-May-14 23:01N 57°48' E 011°17'815.9
2018-May-14 22:31N 57°41' E 011°26'815.8
2018-May-14 22:01N 57°34' E 011°32'816.1
2018-May-14 21:31N 57°27' E 011°38'816.4
2018-May-14 21:00N 57°19' E 011°45'816.4
2018-May-14 20:30N 57°12' E 011°52'816.4
2018-May-14 20:00N 57°04' E 011°57'815.9
2018-May-14 19:30N 56°57' E 012°02'5216.1
2018-May-14 16:16N 56°07' E 012°33'417.6
2018-May-14 16:01N 56°04' E 012°38'816.4
2018-May-14 15:31N 55°56' E 012°43'815.9
2018-May-14 15:00N 55°48' E 012°43'714.0
2018-May-14 14:30N 55°42' E 012°37'1 1.0
2018-May-14 14:00N 55°42' E 012°36'  

Dump ship's entire track history